createdAt,value
2023-02-08T00:00:06.615Z,48.60
2023-02-08T00:02:33.417Z,46.13
2023-02-08T00:05:00.195Z,49.30
2023-02-08T00:07:26.946Z,50.27
2023-02-08T00:09:53.801Z,44.50
2023-02-08T00:12:20.680Z,51.57
2023-02-08T00:14:47.508Z,51.23
2023-02-08T00:17:34.219Z,47.53
2023-02-08T00:20:04.878Z,46.33
2023-02-08T00:22:52.627Z,52.37
2023-02-08T00:25:41.420Z,52.93
2023-02-08T00:28:12.343Z,47.73
2023-02-08T00:30:41.547Z,47.83
2023-02-08T00:33:08.965Z,44.23
2023-02-08T00:35:35.792Z,53.47
2023-02-08T00:38:02.448Z,46.13
2023-02-08T00:40:29.200Z,45.73
2023-02-08T00:42:55.827Z,47.47
2023-02-08T00:45:23.666Z,44.43
2023-02-08T00:47:50.700Z,49.30
2023-02-08T00:50:17.444Z,44.30
2023-02-08T00:52:44.080Z,46.73
2023-02-08T00:55:11.306Z,44.33
2023-02-08T00:57:38.937Z,50.83
2023-02-08T01:00:07.316Z,47.37
2023-02-08T01:02:33.972Z,45.00
2023-02-08T01:05:00.691Z,50.53
2023-02-08T01:07:27.412Z,46.67
2023-02-08T01:09:54.084Z,45.00
2023-02-08T01:12:20.740Z,42.70
2023-02-08T01:14:47.571Z,42.23
2023-02-08T01:17:14.235Z,45.13
2023-02-08T01:19:42.524Z,45.37
2023-02-08T01:22:09.372Z,41.83
2023-02-08T01:24:35.996Z,41.37
2023-02-08T01:27:02.712Z,42.83
2023-02-08T01:29:29.385Z,43.97
2023-02-08T01:31:56.094Z,44.53
2023-02-08T01:34:22.951Z,40.97
2023-02-08T01:36:49.662Z,41.60
2023-02-08T01:39:16.389Z,39.50
2023-02-08T01:41:45.038Z,44.77
2023-02-08T01:44:11.626Z,43.40
2023-02-08T01:46:41.255Z,42.40
2023-02-08T01:49:12.726Z,43.33
2023-02-08T01:51:47.774Z,44.30
2023-02-08T01:54:18.355Z,43.33
2023-02-08T01:56:48.345Z,40.33
2023-02-08T01:59:23.028Z,43.97
2023-02-08T02:01:52.620Z,38.90
2023-02-08T02:04:20.109Z,42.83
2023-02-08T02:06:51.182Z,41.50
2023-02-08T02:09:27.511Z,44.40
2023-02-08T02:11:55.011Z,46.30
2023-02-08T02:14:22.769Z,44.73
2023-02-08T02:16:49.803Z,47.27
2023-02-08T02:19:52.788Z,37.43
2023-02-08T02:22:48.596Z,42.07
2023-02-08T02:25:42.559Z,38.50
2023-02-08T02:28:40.218Z,42.37
2023-02-08T02:31:44.562Z,42.27
2023-02-08T02:34:14.086Z,41.80
2023-02-08T02:36:55.590Z,42.43
2023-02-08T02:39:57.495Z,38.67
2023-02-08T02:42:58.425Z,40.07
2023-02-08T02:45:30.286Z,41.60
2023-02-08T02:47:59.975Z,43.13
2023-02-08T02:50:45.224Z,44.77
2023-02-08T02:53:43.022Z,42.50
2023-02-08T02:56:15.536Z,42.43
2023-02-08T02:58:43.507Z,41.70
2023-02-08T03:01:10.421Z,37.13
2023-02-08T03:03:37.128Z,40.40
2023-02-08T03:06:10.522Z,40.87
2023-02-08T03:09:07.717Z,42.23
2023-02-08T03:11:38.904Z,42.17
2023-02-08T03:14:30.214Z,43.40
2023-02-08T03:17:03.295Z,46.53
2023-02-08T03:19:50.290Z,42.87
2023-02-08T03:22:33.160Z,40.07
2023-02-08T03:25:06.365Z,38.50
2023-02-08T03:27:50.353Z,43.60
2023-02-08T03:30:32.835Z,42.60
2023-02-08T03:33:16.076Z,39.33
2023-02-08T03:36:02.578Z,45.30
2023-02-08T03:38:39.686Z,36.47
2023-02-08T03:41:10.377Z,43.17
2023-02-08T03:43:42.656Z,42.40
2023-02-08T03:46:24.504Z,41.10
2023-02-08T03:49:15.024Z,41.37
2023-02-08T03:51:45.675Z,42.07
2023-02-08T03:54:20.597Z,45.83
2023-02-08T03:56:54.512Z,37.87
2023-02-08T03:59:26.581Z,46.43
2023-02-08T04:02:16.881Z,37.83
2023-02-08T04:04:47.524Z,40.90
2023-02-08T04:07:14.330Z,40.37
2023-02-08T04:09:41.012Z,47.33
2023-02-08T04:12:07.980Z,42.60
2023-02-08T04:14:34.677Z,42.27
2023-02-08T04:17:01.555Z,42.93
2023-02-08T04:19:28.302Z,45.07
2023-02-08T04:21:55.254Z,43.10
2023-02-08T04:24:21.892Z,42.93
2023-02-08T04:26:48.579Z,39.43
2023-02-08T04:29:15.610Z,40.00
2023-02-08T04:31:42.742Z,39.30
2023-02-08T04:34:09.463Z,40.97
2023-02-08T04:36:36.103Z,45.50
2023-02-08T04:39:02.777Z,39.33
2023-02-08T04:41:29.499Z,42.30
2023-02-08T04:43:56.203Z,41.93
2023-02-08T04:46:22.988Z,39.27
2023-02-08T04:48:50.108Z,43.00
2023-02-08T04:51:16.935Z,42.30
2023-02-08T04:53:43.582Z,43.67
2023-02-08T04:56:10.469Z,39.80
2023-02-08T04:58:37.242Z,44.20
2023-02-08T05:01:12.619Z,48.67
2023-02-08T05:03:39.366Z,39.47
2023-02-08T05:06:06.429Z,40.83
2023-02-08T05:08:33.148Z,36.50
2023-02-08T05:10:59.862Z,41.27
2023-02-08T05:13:26.547Z,38.00
2023-02-08T05:15:53.229Z,40.30
2023-02-08T05:18:20.013Z,40.40
2023-02-08T05:20:54.839Z,38.67
2023-02-08T05:23:21.565Z,40.73
2023-02-08T05:25:48.207Z,41.63
2023-02-08T05:28:14.965Z,44.60
2023-02-08T05:30:42.084Z,41.87
2023-02-08T05:33:08.936Z,45.40
2023-02-08T05:35:35.647Z,39.83
2023-02-08T05:38:02.345Z,42.93
2023-02-08T05:40:29.658Z,45.17
2023-02-08T05:42:56.331Z,44.70
2023-02-08T05:45:23.065Z,37.23
2023-02-08T05:47:49.937Z,40.77
2023-02-08T05:50:16.808Z,43.43
2023-02-08T05:52:43.511Z,41.47
2023-02-08T05:55:10.200Z,48.50
2023-02-08T05:57:37.288Z,48.90
2023-02-08T06:00:06.046Z,48.97
2023-02-08T06:02:32.926Z,47.43
2023-02-08T06:04:59.947Z,50.97
2023-02-08T06:07:26.678Z,44.53
2023-02-08T06:09:53.317Z,46.30
2023-02-08T06:12:20.144Z,43.33
2023-02-08T06:14:47.507Z,42.77
2023-02-08T06:17:14.200Z,45.27
2023-02-08T06:19:40.900Z,43.20
2023-02-08T06:22:07.648Z,42.67
2023-02-08T06:24:34.277Z,45.23
2023-02-08T06:27:00.925Z,46.87
2023-02-08T06:29:27.595Z,49.30
2023-02-08T06:31:54.306Z,51.27
2023-02-08T06:34:21.114Z,49.33
2023-02-08T06:36:47.823Z,55.03
2023-02-08T06:39:14.512Z,50.70
2023-02-08T06:41:41.323Z,48.30
2023-02-08T06:44:08.283Z,61.93
2023-02-08T06:46:34.928Z,47.97
2023-02-08T06:49:01.641Z,49.17
2023-02-08T06:51:28.304Z,56.00
2023-02-08T06:53:55.130Z,53.77
2023-02-08T06:56:21.816Z,50.70
2023-02-08T06:58:48.474Z,54.70
2023-02-08T07:01:15.644Z,50.00
2023-02-08T07:03:42.711Z,52.53
2023-02-08T07:06:17.193Z,53.10
2023-02-08T07:08:44.278Z,53.13
2023-02-08T07:11:13.484Z,56.97
2023-02-08T07:13:40.174Z,55.00
2023-02-08T07:16:08.693Z,52.30
2023-02-08T07:18:36.244Z,56.37
2023-02-08T07:21:02.923Z,55.60
2023-02-08T07:23:30.333Z,52.17
2023-02-08T07:26:02.348Z,55.40
2023-02-08T07:28:29.614Z,52.47
2023-02-08T07:30:56.670Z,65.07
2023-02-08T07:33:24.254Z,52.50
2023-02-08T07:35:51.356Z,47.77
2023-02-08T07:38:20.608Z,49.63
2023-02-08T07:40:47.680Z,46.73
2023-02-08T07:43:14.489Z,49.67
2023-02-08T07:45:41.358Z,55.77
2023-02-08T07:48:08.258Z,60.97
2023-02-08T07:50:35.010Z,49.80
2023-02-08T07:53:01.678Z,48.40
2023-02-08T07:55:28.416Z,55.67
2023-02-08T07:57:56.105Z,47.80
2023-02-08T08:00:23.250Z,54.47
2023-02-08T08:02:51.236Z,47.87
2023-02-08T08:05:18.112Z,45.17
2023-02-08T08:07:44.747Z,52.47
2023-02-08T08:10:11.383Z,46.60
2023-02-08T08:12:38.172Z,50.30
2023-02-08T08:15:05.298Z,49.87
2023-02-08T08:17:32.079Z,46.13
2023-02-08T08:19:58.802Z,49.63
2023-02-08T08:22:25.535Z,48.00
2023-02-08T08:24:52.185Z,44.73
2023-02-08T08:27:19.055Z,43.70
2023-02-08T08:29:45.888Z,38.37
2023-02-08T08:32:12.508Z,46.30
2023-02-08T08:34:39.366Z,42.33
2023-02-08T08:37:06.013Z,46.00
2023-02-08T08:39:32.791Z,41.23
2023-02-08T08:42:00.964Z,44.13
2023-02-08T08:44:27.634Z,44.03
2023-02-08T08:46:58.638Z,41.27
2023-02-08T08:49:26.719Z,42.57
2023-02-08T08:51:54.256Z,38.73
2023-02-08T08:54:21.709Z,33.73
2023-02-08T08:56:49.705Z,36.83
2023-02-08T08:59:16.540Z,36.23
2023-02-08T09:01:43.334Z,34.33
2023-02-08T09:04:11.281Z,37.97
2023-02-08T09:06:38.980Z,35.73
2023-02-08T09:09:06.407Z,28.97
2023-02-08T09:11:33.712Z,25.80
2023-02-08T09:14:05.337Z,29.83
2023-02-08T09:16:32.919Z,25.07
2023-02-08T09:19:08.304Z,27.77
2023-02-08T09:21:35.081Z,26.73
2023-02-08T09:24:03.621Z,26.43
2023-02-08T09:26:30.688Z,26.57
2023-02-08T09:28:57.580Z,25.10
2023-02-08T09:31:30.994Z,24.27
2023-02-08T09:34:00.725Z,24.30
2023-02-08T09:36:31.589Z,23.20
2023-02-08T09:39:01.944Z,24.60
2023-02-08T09:41:55.971Z,20.97
2023-02-08T09:44:25.580Z,21.90
2023-02-08T09:47:00.036Z,19.20
2023-02-08T09:49:34.373Z,19.43
2023-02-08T09:52:06.731Z,16.67
2023-02-08T09:54:41.532Z,19.23
2023-02-08T09:57:19.207Z,19.00
2023-02-08T10:00:05.476Z,17.67
2023-02-08T10:02:34.342Z,20.63
2023-02-08T10:05:12.388Z,17.10
2023-02-08T10:07:41.499Z,15.93
2023-02-08T10:11:05.211Z,15.83
2023-02-08T10:13:53.512Z,15.03
2023-02-08T10:16:40.939Z,17.97
2023-02-08T10:19:51.208Z,15.10
2023-02-08T10:22:39.535Z,13.57
2023-02-08T10:25:35.728Z,16.07
2023-02-08T10:28:37.658Z,8.73
2023-02-08T10:31:07.512Z,10.27
2023-02-08T10:33:53.105Z,8.33
2023-02-08T10:36:22.316Z,7.20
2023-02-08T10:38:52.520Z,7.60
2023-02-08T10:41:24.380Z,7.37
2023-02-08T10:44:20.013Z,6.97
2023-02-08T10:47:14.623Z,5.47
2023-02-08T10:49:47.575Z,5.47
2023-02-08T10:52:14.302Z,7.87
2023-02-08T10:54:41.203Z,7.13
2023-02-08T10:57:23.701Z,7.20
2023-02-08T10:59:58.919Z,6.67
2023-02-08T11:02:28.452Z,4.37
2023-02-08T11:05:08.448Z,4.73
2023-02-08T11:07:37.134Z,5.43
2023-02-08T11:10:18.087Z,4.80
2023-02-08T11:13:06.927Z,4.80
2023-02-08T11:15:40.103Z,4.50
2023-02-08T11:18:16.057Z,5.90
2023-02-08T11:20:49.095Z,5.07
2023-02-08T11:23:22.788Z,6.00
2023-02-08T11:25:50.197Z,5.17
2023-02-08T11:28:31.254Z,5.47
2023-02-08T11:31:03.448Z,5.03
2023-02-08T11:33:30.624Z,4.30
2023-02-08T11:36:02.593Z,5.30
2023-02-08T11:38:31.251Z,4.77
2023-02-08T11:41:02.162Z,4.10
2023-02-08T11:43:35.428Z,4.30
2023-02-08T11:46:05.515Z,4.37
2023-02-08T11:48:41.158Z,5.67
2023-02-08T11:51:09.806Z,5.90
2023-02-08T11:53:40.229Z,5.43
2023-02-08T11:56:07.029Z,4.17
2023-02-08T11:58:34.332Z,4.50
2023-02-08T12:01:13.384Z,4.23
2023-02-08T12:03:41.685Z,4.50
2023-02-08T12:06:31.708Z,4.43
2023-02-08T12:09:39.394Z,3.53
2023-02-08T12:12:29.850Z,4.33
2023-02-08T12:15:10.900Z,5.30
2023-02-08T12:18:05.367Z,3.17
2023-02-08T12:20:37.689Z,4.20
2023-02-08T12:23:04.288Z,5.03
2023-02-08T12:25:47.807Z,3.73
2023-02-08T12:28:57.503Z,3.70
2023-02-08T12:31:42.674Z,5.03
2023-02-08T12:34:47.324Z,3.27
2023-02-08T12:37:58.418Z,4.33
2023-02-08T12:41:03.376Z,3.70
2023-02-08T12:43:42.212Z,3.40
2023-02-08T12:46:27.829Z,6.63
2023-02-08T12:49:24.776Z,12.70
2023-02-08T12:51:57.426Z,7.47
2023-02-08T12:54:34.405Z,6.07
2023-02-08T12:57:02.944Z,5.53
2023-02-08T12:59:47.987Z,5.90
2023-02-08T13:02:20.365Z,8.33
2023-02-08T13:04:51.738Z,5.77
2023-02-08T13:07:23.854Z,5.63
2023-02-08T13:09:56.408Z,5.70
2023-02-08T13:12:29.377Z,7.87
2023-02-08T13:15:02.951Z,6.23
2023-02-08T13:17:51.617Z,4.90
2023-02-08T13:20:38.607Z,4.07
2023-02-08T13:23:24.018Z,4.77
2023-02-08T13:25:54.936Z,4.87
2023-02-08T13:28:24.351Z,5.67
2023-02-08T13:30:56.839Z,6.73
2023-02-08T13:33:33.605Z,6.80
2023-02-08T13:36:00.502Z,7.43
2023-02-08T13:38:33.485Z,10.87
2023-02-08T13:41:15.222Z,8.97
2023-02-08T13:44:07.876Z,11.10
2023-02-08T13:46:45.845Z,8.10
2023-02-08T13:49:43.528Z,9.13
2023-02-08T13:52:12.256Z,9.00
2023-02-08T13:54:39.278Z,9.63
2023-02-08T13:57:44.553Z,10.13
2023-02-08T14:00:36.043Z,9.60
2023-02-08T14:03:14.757Z,10.03
2023-02-08T14:05:47.522Z,8.63
2023-02-08T14:08:24.795Z,10.23
2023-02-08T14:11:30.233Z,9.80
2023-02-08T14:14:13.765Z,10.13
2023-02-08T14:16:43.406Z,8.93
2023-02-08T14:19:16.150Z,8.70
2023-02-08T14:21:50.733Z,9.80
2023-02-08T14:24:24.300Z,6.93
2023-02-08T14:27:05.101Z,8.00
2023-02-08T14:29:33.093Z,6.93
2023-02-08T14:32:00.417Z,7.50
2023-02-08T14:34:34.901Z,10.27
2023-02-08T14:37:05.672Z,9.37
2023-02-08T14:39:37.368Z,7.77
2023-02-08T14:42:10.389Z,7.27
2023-02-08T14:44:43.370Z,7.60
2023-02-08T14:47:18.561Z,6.17
2023-02-08T14:49:45.797Z,7.97
2023-02-08T14:52:21.025Z,9.67
2023-02-08T14:54:54.464Z,7.97
2023-02-08T14:57:25.791Z,10.73
2023-02-08T14:59:54.241Z,8.23
2023-02-08T15:02:26.256Z,8.17
2023-02-08T15:04:53.192Z,8.17
2023-02-08T15:07:26.272Z,7.70
2023-02-08T15:09:53.021Z,8.53
2023-02-08T15:12:38.871Z,10.50
2023-02-08T15:15:06.841Z,8.80
2023-02-08T15:17:39.920Z,11.67
2023-02-08T15:20:18.284Z,9.90
2023-02-08T15:22:45.766Z,9.03
2023-02-08T15:25:25.505Z,9.07
2023-02-08T15:27:58.380Z,8.93
2023-02-08T15:30:29.850Z,12.23
2023-02-08T15:32:57.067Z,12.60
2023-02-08T15:35:25.980Z,12.00
2023-02-08T15:37:54.804Z,10.13
2023-02-08T15:40:24.513Z,10.93
2023-02-08T15:42:51.149Z,11.40
2023-02-08T15:45:31.028Z,12.20
2023-02-08T15:47:59.200Z,12.13
2023-02-08T15:50:27.604Z,11.87
2023-02-08T15:53:06.440Z,12.27
2023-02-08T15:55:39.493Z,11.50
2023-02-08T15:58:20.739Z,12.33
2023-02-08T16:00:47.799Z,12.87
2023-02-08T16:03:20.633Z,11.77
2023-02-08T16:05:56.743Z,12.30
2023-02-08T16:08:36.068Z,13.40
2023-02-08T16:11:05.407Z,16.93
2023-02-08T16:13:35.713Z,14.37
2023-02-08T16:16:26.710Z,11.90
2023-02-08T16:19:02.045Z,18.03
2023-02-08T16:21:35.602Z,16.20
2023-02-08T16:24:19.857Z,15.10
2023-02-08T16:27:03.252Z,15.13
2023-02-08T16:29:40.565Z,14.80
2023-02-08T16:32:21.220Z,17.23
2023-02-08T16:34:48.713Z,16.00
2023-02-08T16:37:33.736Z,17.00
2023-02-08T16:40:02.613Z,16.47
2023-02-08T16:42:33.989Z,18.27
2023-02-08T16:45:14.889Z,16.47
2023-02-08T16:47:45.556Z,15.50
2023-02-08T16:50:15.943Z,16.57
2023-02-08T16:52:43.110Z,19.17
2023-02-08T16:55:19.637Z,23.33
2023-02-08T16:57:49.636Z,17.33
2023-02-08T17:00:23.405Z,19.67
2023-02-08T17:02:50.796Z,17.13
2023-02-08T17:05:19.154Z,18.73
2023-02-08T17:07:46.215Z,18.40
2023-02-08T17:10:29.185Z,16.33
2023-02-08T17:13:09.910Z,19.87
2023-02-08T17:15:44.659Z,16.67
2023-02-08T17:18:12.825Z,20.77
2023-02-08T17:20:39.644Z,16.77
2023-02-08T17:23:07.130Z,18.10
2023-02-08T17:25:35.787Z,20.17
2023-02-08T17:28:06.203Z,19.70
2023-02-08T17:30:34.259Z,21.20
2023-02-08T17:33:00.926Z,20.07
2023-02-08T17:35:28.915Z,16.93
2023-02-08T17:37:58.073Z,20.50
2023-02-08T17:40:32.577Z,16.80
2023-02-08T17:43:03.418Z,19.10
2023-02-08T17:45:30.200Z,18.23
2023-02-08T17:48:00.134Z,18.33
2023-02-08T17:50:27.004Z,25.60
2023-02-08T17:52:53.903Z,20.63
2023-02-08T17:55:20.654Z,24.77
2023-02-08T17:57:47.909Z,24.10
2023-02-08T18:00:20.639Z,22.00
2023-02-08T18:02:50.394Z,18.90
2023-02-08T18:05:19.692Z,23.80
2023-02-08T18:07:46.739Z,24.13
2023-02-08T18:10:15.455Z,26.97
2023-02-08T18:12:42.585Z,21.03
2023-02-08T18:15:12.384Z,30.43
2023-02-08T18:17:39.816Z,28.20
2023-02-08T18:20:07.393Z,23.57
2023-02-08T18:22:34.591Z,24.83
2023-02-08T18:25:01.277Z,29.17
2023-02-08T18:27:28.041Z,25.90
2023-02-08T18:29:54.968Z,30.87
2023-02-08T18:32:22.148Z,27.97
2023-02-08T18:34:50.194Z,26.50
2023-02-08T18:37:17.293Z,28.50
2023-02-08T18:39:44.069Z,21.40
2023-02-08T18:42:11.849Z,27.57
2023-02-08T18:44:38.993Z,27.67
2023-02-08T18:47:07.520Z,26.63
2023-02-08T18:49:40.976Z,25.60
2023-02-08T18:52:12.480Z,27.43
2023-02-08T18:54:40.099Z,27.60
2023-02-08T18:57:10.703Z,27.97
2023-02-08T18:59:38.394Z,28.63
2023-02-08T19:02:07.284Z,25.17
2023-02-08T19:04:40.699Z,25.57
2023-02-08T19:07:07.656Z,25.97
2023-02-08T19:09:36.332Z,25.40
2023-02-08T19:12:03.829Z,32.50
2023-02-08T19:14:30.956Z,26.30
2023-02-08T19:16:57.770Z,26.20
2023-02-08T19:19:24.568Z,32.00
2023-02-08T19:21:51.331Z,25.50
2023-02-08T19:24:19.708Z,26.43
2023-02-08T19:26:47.020Z,30.67
2023-02-08T19:29:19.959Z,29.27
2023-02-08T19:31:47.728Z,29.13
2023-02-08T19:34:15.765Z,28.70
2023-02-08T19:36:46.593Z,30.60
2023-02-08T19:39:16.525Z,29.80
2023-02-08T19:41:43.904Z,29.80
2023-02-08T19:44:13.714Z,26.10
2023-02-08T19:46:42.268Z,25.37
2023-02-08T19:49:12.316Z,27.80
2023-02-08T19:51:39.907Z,27.43
2023-02-08T19:54:10.151Z,30.40
2023-02-08T19:56:37.218Z,28.20
2023-02-08T19:59:08.726Z,25.90
2023-02-08T20:01:36.239Z,28.23
2023-02-08T20:04:04.131Z,29.93
2023-02-08T20:06:38.864Z,29.97
2023-02-08T20:09:07.096Z,23.07
2023-02-08T20:11:38.730Z,28.57
2023-02-08T20:14:12.305Z,29.80
2023-02-08T20:16:38.988Z,28.97
2023-02-08T20:19:05.759Z,27.57
2023-02-08T20:21:32.801Z,25.33
2023-02-08T20:24:01.813Z,31.33
2023-02-08T20:26:29.900Z,29.83
2023-02-08T20:28:59.273Z,26.73
2023-02-08T20:31:31.212Z,27.87
2023-02-08T20:33:59.968Z,26.17
2023-02-08T20:36:29.120Z,24.50
2023-02-08T20:38:58.675Z,24.93
2023-02-08T20:41:28.133Z,27.60
2023-02-08T20:43:54.936Z,27.33
2023-02-08T20:46:34.679Z,27.53
2023-02-08T20:49:04.414Z,30.67
2023-02-08T20:51:31.869Z,29.73
2023-02-08T20:53:59.976Z,31.50
2023-02-08T20:56:32.841Z,29.23
2023-02-08T20:59:07.767Z,29.60
2023-02-08T21:01:35.726Z,27.03
2023-02-08T21:04:03.756Z,31.97
2023-02-08T21:06:36.083Z,33.37
2023-02-08T21:09:13.433Z,29.60
2023-02-08T21:11:40.574Z,27.53
2023-02-08T21:14:08.404Z,29.43
2023-02-08T21:16:35.215Z,26.33
2023-02-08T21:19:02.099Z,32.90
2023-02-08T21:21:28.907Z,30.30
2023-02-08T21:23:57.811Z,33.67
2023-02-08T21:26:26.384Z,32.77
2023-02-08T21:28:55.216Z,29.13
2023-02-08T21:31:23.824Z,33.13
2023-02-08T21:33:51.216Z,33.27
2023-02-08T21:36:21.049Z,32.37
2023-02-08T21:38:47.904Z,31.03
2023-02-08T21:41:20.221Z,33.07
2023-02-08T21:43:47.886Z,31.40
2023-02-08T21:46:15.383Z,33.17
2023-02-08T21:49:01.166Z,31.67
2023-02-08T21:51:46.668Z,33.73
2023-02-08T21:54:35.836Z,35.20
2023-02-08T21:57:05.197Z,35.07
2023-02-08T21:59:37.327Z,33.93
2023-02-08T22:02:11.665Z,35.33
2023-02-08T22:04:38.409Z,34.50
2023-02-08T22:07:05.161Z,29.07
2023-02-08T22:09:31.873Z,33.27
2023-02-08T22:11:58.948Z,38.80
2023-02-08T22:14:26.431Z,34.90
2023-02-08T22:16:53.234Z,39.73
2023-02-08T22:19:20.003Z,37.83
2023-02-08T22:21:46.750Z,33.63
2023-02-08T22:24:13.546Z,32.83
2023-02-08T22:26:40.250Z,34.73
2023-02-08T22:29:06.975Z,35.80
2023-02-08T22:31:33.818Z,31.33
2023-02-08T22:34:00.828Z,38.37
2023-02-08T22:36:27.929Z,36.73
2023-02-08T22:38:54.754Z,36.50
2023-02-08T22:41:21.497Z,38.13
2023-02-08T22:43:49.021Z,34.57
2023-02-08T22:46:16.038Z,37.10
2023-02-08T22:48:42.812Z,33.87
2023-02-08T22:51:15.600Z,34.20
2023-02-08T22:53:43.165Z,35.77
2023-02-08T22:56:12.965Z,31.60
2023-02-08T22:58:39.701Z,36.70
2023-02-08T23:01:17.186Z,36.37
2023-02-08T23:03:43.999Z,35.60
2023-02-08T23:06:15.138Z,26.73
2023-02-08T23:08:42.037Z,29.50
2023-02-08T23:11:10.703Z,28.63
2023-02-08T23:13:37.404Z,28.03
2023-02-08T23:16:04.320Z,24.57
2023-02-08T23:18:31.709Z,26.57
2023-02-08T23:20:58.489Z,22.70
2023-02-08T23:23:25.220Z,23.77
2023-02-08T23:25:51.902Z,24.83
2023-02-08T23:28:18.658Z,22.33
2023-02-08T23:30:45.703Z,21.03
2023-02-08T23:33:12.575Z,22.60
2023-02-08T23:35:41.442Z,21.60
2023-02-08T23:38:09.256Z,21.73
2023-02-08T23:40:35.958Z,20.53
2023-02-08T23:43:03.500Z,24.97
2023-02-08T23:45:30.244Z,21.30
2023-02-08T23:47:56.862Z,21.20
2023-02-08T23:50:23.612Z,19.00
2023-02-08T23:52:50.320Z,20.73
2023-02-08T23:55:17.088Z,20.20
2023-02-08T23:57:43.766Z,20.80
